Time;durP1;ratioP1;P1;durP2;ratioP2;P2;SDS_P1;SDS_P2;PMS_P1;PMS_P2;Temp;Humidity;BMP_temperature;BMP_pressure;BME280_temperature;BME280_humidity;BME280_pressure;Samples;Min_cycle;Max_cycle;Signal;HPM_P1;HPM_P2
2021/08/10 00:01:32;;;;;;;3.13;1.30;;;;;;;23.55;51.69;101392.69;5037024;28;20029;-60
2021/08/10 00:03:57;;;;;;;7.28;1.48;;;;;;;23.54;50.54;101385.50;5037436;28;20111;-59
2021/08/10 00:06:22;;;;;;;1.70;1.15;;;;;;;23.53;50.74;101384.69;5037340;28;20041;-60
2021/08/10 00:08:47;;;;;;;2.88;1.20;;;;;;;23.48;51.49;101375.41;5037268;28;20021;-59
2021/08/10 00:11:13;;;;;;;1.27;1.08;;;;;;;23.49;50.65;101380.66;5035459;28;20025;-60
2021/08/10 00:13:38;;;;;;;3.25;1.17;;;;;;;23.47;50.58;101371.81;5037251;28;20056;-60
2021/08/10 00:16:04;;;;;;;2.72;1.52;;;;;;;23.52;51.44;101377.53;5035793;28;20021;-59
2021/08/10 00:18:30;;;;;;;3.65;0.85;;;;;;;23.49;51.11;101366.97;5036876;28;20029;-59
2021/08/10 00:20:55;;;;;;;3.05;1.90;;;;;;;23.43;51.13;101356.84;5035362;28;20034;-59
2021/08/10 00:23:20;;;;;;;1.98;1.08;;;;;;;23.39;50.60;101339.16;5036464;28;20022;-59
2021/08/10 00:25:47;;;;;;;7.80;1.55;;;;;;;23.44;50.53;101353.06;5036169;28;20049;-59
2021/08/10 00:28:13;;;;;;;1.35;1.20;;;;;;;23.40;50.96;101357.22;5034982;28;20091;-59
2021/08/10 00:30:41;;;;;;;3.50;2.38;;;;;;;23.41;50.52;101361.66;5034454;28;20045;-59
2021/08/10 00:33:06;;;;;;;6.32;3.85;;;;;;;23.40;51.50;101365.44;5036493;28;20374;-59
2021/08/10 00:35:32;;;;;;;3.90;2.47;;;;;;;23.39;51.53;101355.56;5036532;28;20021;-59
2021/08/10 00:37:57;;;;;;;5.20;2.45;;;;;;;23.35;51.14;101348.75;5036158;28;20034;-59
2021/08/10 00:40:23;;;;;;;7.22;2.70;;;;;;;23.38;50.58;101356.59;5035301;28;20616;-60
2021/08/10 00:42:48;;;;;;;2.83;1.85;;;;;;;23.36;51.22;101355.94;5036306;28;20424;-59
2021/08/10 00:45:13;;;;;;;4.50;1.90;;;;;;;23.38;50.45;101359.31;5036463;28;20397;-60
2021/08/10 00:47:39;;;;;;;7.35;2.20;;;;;;;23.36;51.55;101355.94;5034782;28;20052;-60
2021/08/10 00:50:05;;;;;;;6.43;1.90;;;;;;;23.41;50.61;101356.19;5036048;28;20051;-60
2021/08/10 00:52:30;;;;;;;2.10;1.65;;;;;;;23.41;50.78;101358.94;5036740;28;20025;-59
2021/08/10 00:54:56;;;;;;;3.67;1.75;;;;;;;23.41;50.60;101348.00;5036244;28;20037;-60
2021/08/10 00:57:21;;;;;;;4.20;1.67;;;;;;;23.40;51.64;101342.72;5034872;28;20017;-59
2021/08/10 00:59:46;;;;;;;5.28;1.67;;;;;;;23.39;51.56;101343.78;5036363;28;20347;-59
2021/08/10 01:02:12;;;;;;;5.10;3.22;;;;;;;23.37;50.61;101346.66;5034966;28;20076;-60
2021/08/10 01:04:37;;;;;;;2.75;1.73;;;;;;;23.30;50.95;101334.84;5035644;28;20471;-60
2021/08/10 01:07:15;;;;;;;4.10;1.88;;;;;;;23.34;51.30;101349.78;5035151;28;20052;-59
2021/08/10 01:09:55;;;;;;;4.28;1.25;;;;;;;23.34;50.98;101352.53;5034773;28;20056;-60
2021/08/10 01:12:33;;;;;;;8.85;1.30;;;;;;;23.32;51.24;101359.22;5034700;28;20021;-60
2021/08/10 01:15:12;;;;;;;3.40;1.38;;;;;;;23.33;51.34;101355.47;5034280;28;20027;-58
2021/08/10 01:17:46;;;;;;;2.08;1.20;;;;;;;23.32;51.52;101343.69;5034299;28;20025;-59
2021/08/10 01:20:20;;;;;;;3.88;1.58;;;;;;;23.32;51.00;101349.16;5034731;28;20037;-59
2021/08/10 01:22:48;;;;;;;2.28;1.48;;;;;;;23.31;50.88;101358.38;5035604;28;20028;-59
2021/08/10 01:25:34;;;;;;;2.70;1.15;;;;;;;23.29;51.66;101363.22;5033893;28;20045;-59
2021/08/10 01:28:36;;;;;;;4.43;1.02;;;;;;;23.28;50.90;101375.22;5034322;28;20034;-61
2021/08/10 01:31:07;;;;;;;1.83;1.08;;;;;;;23.30;50.74;101378.59;5035216;28;20113;-61
2021/08/10 01:33:38;;;;;;;3.63;1.45;;;;;;;23.29;51.24;101376.88;5035231;28;20068;-61
2021/08/10 01:36:04;;;;;;;5.45;1.30;;;;;;;23.29;51.14;101376.88;5033889;28;20025;-59
2021/08/10 01:38:31;;;;;;;1.73;1.23;;;;;;;23.34;51.30;101373.56;5035275;28;20100;-59
2021/08/10 01:40:58;;;;;;;4.30;1.15;;;;;;;23.30;51.16;101355.88;5034182;28;20029;-59
2021/08/10 01:43:24;;;;;;;3.13;1.40;;;;;;;23.35;51.21;101367.91;5034108;28;20057;-59
2021/08/10 01:45:50;;;;;;;4.47;1.40;;;;;;;23.37;51.68;101384.94;5035277;28;20099;-59
2021/08/10 01:48:16;;;;;;;4.53;1.20;;;;;;;23.36;51.50;101394.22;5034077;28;20037;-59
2021/08/10 01:50:44;;;;;;;1.65;1.23;;;;;;;23.35;51.58;101397.97;5033838;28;20032;-59
2021/08/10 01:53:11;;;;;;;3.45;1.25;;;;;;;23.32;51.70;101425.72;5033954;28;20351;-59
2021/08/10 01:55:36;;;;;;;4.95;1.70;;;;;;;23.29;51.25;101442.50;5034680;28;20034;-59
2021/08/10 01:58:02;;;;;;;6.07;1.45;;;;;;;23.24;52.03;101455.94;5033843;28;20044;-59
2021/08/10 02:00:28;;;;;;;9.85;2.05;;;;;;;23.14;51.31;101452.69;5033855;28;20481;-60
2021/08/10 02:02:53;;;;;;;1.95;1.38;;;;;;;23.04;51.67;101455.75;5016820;28;20075;-64
2021/08/10 02:05:20;;;;;;;3.22;1.27;;;;;;;22.90;52.67;101442.13;5033322;28;20029;-63
2021/08/10 02:07:46;;;;;;;2.42;1.55;;;;;;;22.77;52.57;101442.00;5034101;28;20374;-62
2021/08/10 02:10:12;;;;;;;2.15;1.08;;;;;;;22.67;52.73;101444.22;5033314;28;20078;-64
2021/08/10 02:12:37;;;;;;;3.70;1.08;;;;;;;22.56;53.17;101446.34;5033290;28;20029;-67
2021/08/10 02:15:03;;;;;;;4.35;1.92;;;;;;;22.42;52.84;101410.88;5033230;28;20047;-67
2021/08/10 02:17:29;;;;;;;2.00;1.38;;;;;;;22.40;52.56;101415.69;5033109;28;20031;-62
2021/08/10 02:19:54;;;;;;;4.88;1.33;;;;;;;22.34;52.47;101413.72;5034335;28;20025;-61
2021/08/10 02:22:21;;;;;;;2.88;1.17;;;;;;;22.25;53.06;101393.88;5033357;28;20079;-61
2021/08/10 02:24:50;;;;;;;2.08;1.38;;;;;;;22.23;53.07;101389.66;5032833;28;20052;-60
2021/08/10 02:27:53;;;;;;;1.85;1.35;;;;;;;22.20;53.39;101388.16;5032883;28;20032;-60
2021/08/10 02:30:35;;;;;;;5.47;1.00;;;;;;;22.14;53.16;101405.28;5034376;28;20374;-60
2021/08/10 02:33:05;;;;;;;4.10;1.20;;;;;;;22.13;53.38;101403.63;5033106;28;20489;-60
2021/08/10 02:35:31;;;;;;;4.45;1.42;;;;;;;22.12;53.84;101410.09;5032971;28;20155;-59
2021/08/10 02:38:05;;;;;;;5.10;1.80;;;;;;;22.12;53.31;101399.19;5032864;28;20112;-60
2021/08/10 02:40:31;;;;;;;3.58;1.80;;;;;;;22.11;53.56;101399.38;5034011;28;20032;-60
2021/08/10 02:42:59;;;;;;;7.13;2.20;;;;;;;22.09;54.04;101390.53;5032935;28;20034;-61
2021/08/10 02:45:25;;;;;;;6.07;2.33;;;;;;;21.98;53.41;101391.84;5032990;28;20040;-60
2021/08/10 02:47:51;;;;;;;6.53;2.08;;;;;;;22.05;53.14;101409.19;5034126;28;20029;-60
2021/08/10 02:50:17;;;;;;;5.70;1.65;;;;;;;22.02;53.65;101410.41;5034374;28;20026;-60
2021/08/10 02:52:43;;;;;;;3.20;1.45;;;;;;;21.96;53.14;101410.31;5033386;28;20025;-59
2021/08/10 02:55:09;;;;;;;3.75;1.63;;;;;;;21.98;53.92;101416.41;5034651;28;20036;-59
2021/08/10 02:57:40;;;;;;;8.48;2.03;;;;;;;21.97;53.71;101412.00;5032565;28;20428;-59
2021/08/10 03:00:09;;;;;;;4.63;1.60;;;;;;;21.94;53.77;101412.38;5032500;28;20021;-60
2021/08/10 03:02:43;;;;;;;5.22;1.95;;;;;;;21.98;53.83;101402.78;5032732;28;20109;-60
2021/08/10 03:05:10;;;;;;;4.40;1.70;;;;;;;21.98;53.79;101410.94;5015786;28;20573;-59
2021/08/10 03:07:37;;;;;;;3.72;1.60;;;;;;;21.98;53.42;101408.22;5032776;28;20032;-59
2021/08/10 03:10:05;;;;;;;3.63;1.30;;;;;;;21.99;54.16;101399.00;5032407;28;20080;-59
2021/08/10 03:12:32;;;;;;;3.47;1.77;;;;;;;21.98;53.00;101389.97;5033200;28;20484;-60
2021/08/10 03:14:58;;;;;;;2.88;1.50;;;;;;;21.94;53.72;101369.56;5032537;28;20429;-59
2021/08/10 03:17:28;;;;;;;2.97;1.50;;;;;;;21.99;53.25;101377.19;5033911;28;20022;-59
2021/08/10 03:19:55;;;;;;;9.05;2.28;;;;;;;22.03;54.02;101379.34;5032389;28;20028;-60
2021/08/10 03:22:21;;;;;;;3.60;1.77;;;;;;;22.06;53.19;101367.19;5032591;28;20382;-59
2021/08/10 03:24:48;;;;;;;4.18;2.05;;;;;;;22.09;53.59;101371.41;5032013;28;20046;-60
2021/08/10 03:27:13;;;;;;;3.92;1.73;;;;;;;22.12;52.96;101371.03;5032626;28;20401;-59
2021/08/10 03:29:39;;;;;;;4.22;1.70;;;;;;;22.12;54.02;101369.16;5032283;28;20033;-60
2021/08/10 03:32:05;;;;;;;3.70;1.58;;;;;;;22.08;53.53;101362.41;5032647;28;20056;-60
2021/08/10 03:34:32;;;;;;;5.05;1.75;;;;;;;22.13;53.33;101367.28;5033669;28;20108;-60
2021/08/10 03:36:59;;;;;;;3.85;1.50;;;;;;;22.13;53.67;101370.88;5033651;28;20029;-59
2021/08/10 03:39:25;;;;;;;2.47;1.40;;;;;;;22.14;53.28;101358.88;5032548;28;20033;-60
2021/08/10 03:41:50;;;;;;;4.55;1.85;;;;;;;22.10;53.23;101357.59;5033646;28;20028;-60
2021/08/10 03:44:16;;;;;;;6.05;2.03;;;;;;;22.11;52.86;101370.19;5032033;28;20474;-60
2021/08/10 03:46:42;;;;;;;3.42;1.45;;;;;;;22.08;52.99;101369.75;5032322;28;20029;-60
2021/08/10 03:49:09;;;;;;;4.88;1.60;;;;;;;22.05;53.44;101376.44;5033798;28;20037;-60
2021/08/10 03:51:36;;;;;;;4.78;1.67;;;;;;;22.05;53.11;101379.97;5032163;28;20067;-59
2021/08/10 03:54:01;;;;;;;6.75;2.30;;;;;;;22.05;53.66;101376.44;5032180;28;20520;-58
2021/08/10 03:56:27;;;;;;;3.88;1.77;;;;;;;22.00;53.19;101366.06;5032387;28;20033;-59
2021/08/10 03:58:53;;;;;;;1.67;1.40;;;;;;;22.02;53.21;101365.91;5031971;28;20056;-59
2021/08/10 04:01:19;;;;;;;3.00;1.67;;;;;;;21.97;52.89;101360.16;5032227;28;20033;-59
2021/08/10 04:03:45;;;;;;;1.83;1.58;;;;;;;21.95;52.87;101368.53;5032047;28;20040;-58
2021/08/10 04:06:11;;;;;;;3.83;1.88;;;;;;;21.94;52.48;101368.72;5003041;28;20449;-58
2021/08/10 04:08:37;;;;;;;5.43;1.50;;;;;;;21.93;52.19;101369.75;5037042;28;20033;-58
2021/08/10 04:11:02;;;;;;;5.88;2.20;;;;;;;21.88;52.30;101372.22;5037149;28;20037;-59
2021/08/10 04:13:32;;;;;;;2.17;1.15;;;;;;;21.80;52.51;101355.91;5036070;28;20032;-59
2021/08/10 04:16:01;;;;;;;2.22;1.20;;;;;;;21.76;52.80;101360.03;5035793;28;20030;-58
2021/08/10 04:18:28;;;;;;;3.45;0.95;;;;;;;21.76;52.23;101360.91;5035632;28;20074;-59
2021/08/10 04:20:53;;;;;;;5.15;1.58;;;;;;;21.74;52.73;101364.84;5019097;28;20121;-59
2021/08/10 04:23:19;;;;;;;3.47;1.35;;;;;;;21.68;53.01;101368.31;5036687;28;20108;-58
2021/08/10 04:25:45;;;;;;;3.80;1.65;;;;;;;21.70;52.89;101360.78;5036675;28;20088;-59
2021/08/10 04:28:10;;;;;;;3.30;1.35;;;;;;;21.71;52.47;101362.50;5037046;28;20051;-60
2021/08/10 04:30:37;;;;;;;3.10;1.40;;;;;;;21.69;52.35;101372.75;5036955;28;20034;-59
2021/08/10 04:33:04;;;;;;;4.57;1.73;;;;;;;21.71;52.21;101384.31;5036892;28;20021;-59
2021/08/10 04:35:29;;;;;;;2.60;1.30;;;;;;;21.71;52.15;101387.03;5036855;28;20537;-59
2021/08/10 04:37:54;;;;;;;3.42;1.73;;;;;;;21.71;52.27;101385.16;5035741;28;20026;-59
2021/08/10 04:40:20;;;;;;;5.95;1.75;;;;;;;21.73;53.19;101393.16;5036994;28;20044;-58
2021/08/10 04:42:45;;;;;;;2.80;1.42;;;;;;;21.77;52.26;101392.59;5018691;28;20099;-59
2021/08/10 04:45:11;;;;;;;2.38;1.92;;;;;;;21.83;52.37;101388.28;5036312;28;20029;-58
2021/08/10 04:47:36;;;;;;;8.27;2.15;;;;;;;21.85;52.79;101387.03;5036514;28;20417;-59
2021/08/10 04:50:02;;;;;;;2.80;2.05;;;;;;;21.91;53.02;101388.22;5036245;28;20409;-59
2021/08/10 04:52:28;;;;;;;3.33;1.75;;;;;;;21.84;52.44;101368.13;5036435;28;20061;-58
2021/08/10 04:54:56;;;;;;;6.72;2.22;;;;;;;21.98;52.31;101378.22;5036242;28;20021;-58
2021/08/10 04:57:21;;;;;;;7.22;2.50;;;;;;;21.99;52.85;101385.38;5036397;28;20351;-59
2021/08/10 04:59:50;;;;;;;7.30;2.10;;;;;;;22.05;52.43;101381.88;5036183;28;20032;-59
2021/08/10 05:02:15;;;;;;;8.18;2.30;;;;;;;22.15;53.11;101393.34;5035881;28;20025;-59
2021/08/10 05:04:42;;;;;;;4.53;1.55;;;;;;;22.22;53.18;101396.97;5035962;28;20029;-59
2021/08/10 05:07:07;;;;;;;4.65;1.90;;;;;;;22.30;52.65;101391.44;5035752;28;20033;-63
2021/08/10 05:09:33;;;;;;;2.92;2.05;;;;;;;22.39;52.68;101398.47;5036057;28;20033;-60
2021/08/10 05:11:58;;;;;;;3.85;2.22;;;;;;;22.47;53.21;101387.41;5035824;28;20029;-59
2021/08/10 05:14:23;;;;;;;3.88;2.00;;;;;;;22.60;52.65;101390.31;5035976;28;20024;-58
2021/08/10 05:16:49;;;;;;;7.72;2.55;;;;;;;22.73;52.32;101402.44;5035501;28;20366;-60
2021/08/10 05:19:14;;;;;;;4.32;1.67;;;;;;;22.84;52.59;101399.19;5034618;28;20025;-59
2021/08/10 05:21:41;;;;;;;6.53;2.70;;;;;;;22.97;52.11;101402.06;5035706;28;20028;-58
2021/08/10 05:24:06;;;;;;;5.55;2.03;;;;;;;23.04;51.60;101394.75;5035644;28;20025;-59
2021/08/10 05:26:31;;;;;;;5.82;2.10;;;;;;;23.16;52.40;101401.41;5035258;28;20048;-58
2021/08/10 05:28:57;;;;;;;6.93;2.13;;;;;;;23.26;52.11;101399.16;5035616;28;20481;-59
2021/08/10 05:31:22;;;;;;;3.38;1.60;;;;;;;23.42;52.43;101403.53;5035318;28;20112;-58
2021/08/10 05:33:47;;;;;;;9.30;2.13;;;;;;;23.57;52.17;101401.53;5035337;28;20156;-59
2021/08/10 05:36:13;;;;;;;6.43;2.00;;;;;;;23.69;51.23;101406.25;5035255;28;20466;-58
2021/08/10 05:38:40;;;;;;;8.13;2.15;;;;;;;23.85;52.05;101406.97;5017502;28;20522;-59
2021/08/10 05:41:05;;;;;;;6.43;2.05;;;;;;;24.00;51.79;101402.22;5035216;28;20045;-59
2021/08/10 05:43:30;;;;;;;3.60;1.95;;;;;;;24.03;51.60;101399.06;5033727;28;20107;-59
2021/08/10 05:45:56;;;;;;;3.17;1.73;;;;;;;24.04;51.17;101392.53;5035312;28;20036;-59
2021/08/10 05:48:23;;;;;;;3.05;1.50;;;;;;;24.06;52.00;101393.19;5034939;28;20112;-59
2021/08/10 05:50:48;;;;;;;2.92;1.60;;;;;;;24.06;51.76;101396.78;5035148;28;20017;-59
2021/08/10 05:53:13;;;;;;;3.45;1.77;;;;;;;24.04;52.26;101387.06;5035132;28;20025;-59
2021/08/10 05:55:39;;;;;;;3.13;1.70;;;;;;;24.06;51.18;101402.25;5035055;28;20484;-59
2021/08/10 05:58:04;;;;;;;3.78;1.80;;;;;;;24.05;52.00;101394.22;5035048;28;20057;-60
2021/08/10 06:00:30;;;;;;;6.60;2.00;;;;;;;24.06;51.17;101404.16;5034798;28;20021;-59
2021/08/10 06:02:55;;;;;;;4.55;1.80;;;;;;;24.01;51.51;101398.44;5034961;28;20037;-59
2021/08/10 06:05:21;;;;;;;4.15;2.00;;;;;;;23.97;51.19;101386.19;5033429;28;20033;-59
2021/08/10 06:07:46;;;;;;;6.25;1.58;;;;;;;24.08;51.42;101388.34;5033971;28;20039;-59
2021/08/10 06:10:12;;;;;;;4.22;1.58;;;;;;;24.17;51.63;101392.66;5034751;28;20394;-59
2021/08/10 06:12:37;;;;;;;2.20;1.42;;;;;;;24.24;50.71;101397.09;5034612;28;20049;-59
2021/08/10 06:15:06;;;;;;;3.53;1.60;;;;;;;24.28;51.00;101392.06;5034739;28;20057;-59
2021/08/10 06:17:31;;;;;;;2.75;1.73;;;;;;;24.36;51.09;101396.50;5034709;28;20051;-59
2021/08/10 06:19:58;;;;;;;5.82;2.42;;;;;;;24.32;50.93;101380.47;5034299;28;20052;-59
2021/08/10 06:22:23;;;;;;;4.38;1.90;;;;;;;24.37;50.99;101393.56;5016797;28;20028;-59
2021/08/10 06:24:48;;;;;;;3.10;2.20;;;;;;;24.38;50.80;101403.47;5034290;28;20386;-59
2021/08/10 06:27:14;;;;;;;5.05;1.33;;;;;;;24.38;51.00;101400.72;5033576;28;20036;-59
2021/08/10 06:29:39;;;;;;;3.95;1.80;;;;;;;24.41;50.65;101403.06;5034389;28;20044;-59
2021/08/10 06:32:05;;;;;;;4.00;1.58;;;;;;;24.46;50.75;101399.69;5033417;28;20028;-59
2021/08/10 06:34:30;;;;;;;3.25;1.63;;;;;;;24.50;50.53;101414.69;5034068;28;20021;-59
2021/08/10 06:36:55;;;;;;;5.22;2.13;;;;;;;24.52;50.95;101407.94;5034757;28;20435;-59
2021/08/10 06:39:20;;;;;;;6.90;2.15;;;;;;;24.52;50.35;101405.19;5034056;28;20033;-59
2021/08/10 06:41:46;;;;;;;2.80;1.90;;;;;;;24.56;50.32;101408.38;5034133;28;20033;-59
2021/08/10 06:44:11;;;;;;;3.75;1.85;;;;;;;24.58;51.04;101401.63;5034193;28;20022;-59
2021/08/10 06:46:37;;;;;;;3.67;2.00;;;;;;;24.56;51.00;101395.53;5032741;28;20049;-60
2021/08/10 06:49:02;;;;;;;3.25;1.95;;;;;;;24.58;50.67;101396.16;5034194;28;20032;-59
2021/08/10 06:51:27;;;;;;;3.10;1.70;;;;;;;24.58;50.46;101412.59;5034117;28;20098;-58
2021/08/10 06:53:53;;;;;;;5.25;2.05;;;;;;;24.58;50.76;101412.59;5034188;28;20101;-59
2021/08/10 06:56:18;;;;;;;3.83;1.60;;;;;;;24.59;50.38;101410.72;5034113;28;20030;-59
2021/08/10 06:58:43;;;;;;;3.88;1.90;;;;;;;24.71;50.77;101414.50;5032521;28;20028;-59
2021/08/10 07:01:09;;;;;;;5.18;1.90;;;;;;;24.84;50.70;101412.72;5033964;28;20017;-59
2021/08/10 07:03:34;;;;;;;9.57;1.80;;;;;;;24.98;50.20;101404.50;5033981;28;20021;-59
2021/08/10 07:06:00;;;;;;;7.28;1.98;;;;;;;25.32;49.91;101429.81;5034029;28;20072;-59
2021/08/10 07:08:25;;;;;;;5.43;1.77;;;;;;;25.61;50.03;101424.97;5032815;28;20028;-59
2021/08/10 07:10:50;;;;;;;3.17;1.48;;;;;;;25.60;49.60;101424.13;5033649;28;20025;-59
2021/08/10 07:13:16;;;;;;;2.58;1.67;;;;;;;25.68;49.72;101432.16;5033944;28;20462;-59
2021/08/10 07:15:41;;;;;;;6.00;2.10;;;;;;;25.81;49.56;101426.66;5033561;28;20025;-59
2021/08/10 07:18:07;;;;;;;6.63;2.25;;;;;;;25.99;49.33;101424.06;5034096;28;20036;-59
2021/08/10 07:20:32;;;;;;;7.82;2.05;;;;;;;26.25;48.88;101422.31;5033956;28;20075;-59
2021/08/10 07:22:57;;;;;;;8.68;2.08;;;;;;;26.38;49.42;101422.28;5033628;28;20051;-59
2021/08/10 07:25:23;;;;;;;7.18;2.28;;;;;;;26.34;49.56;101410.03;5033631;28;20056;-59
2021/08/10 07:27:48;;;;;;;5.00;1.92;;;;;;;26.36;49.39;101421.63;5033773;28;20159;-59
2021/08/10 07:30:14;;;;;;;4.47;1.70;;;;;;;26.32;49.10;101423.13;5033928;28;20119;-59
2021/08/10 07:32:40;;;;;;;6.30;1.80;;;;;;;26.31;49.01;101440.69;5028692;28;20030;-60
2021/08/10 07:35:06;;;;;;;4.07;1.83;;;;;;;26.28;48.94;101444.72;5013810;28;20493;-60
2021/08/10 07:37:31;;;;;;;3.28;1.92;;;;;;;26.25;49.24;101439.66;5013580;28;20033;-60
2021/08/10 07:39:57;;;;;;;2.80;2.03;;;;;;;26.23;49.48;101432.69;5016020;28;20029;-60
2021/08/10 07:42:22;;;;;;;3.30;2.08;;;;;;;26.20;49.40;101427.63;5017545;28;20033;-60
2021/08/10 07:44:47;;;;;;;2.85;1.88;;;;;;;26.23;49.04;101435.44;5017586;28;20053;-59
2021/08/10 07:47:13;;;;;;;2.40;1.70;;;;;;;26.17;49.47;101434.38;5017812;28;20378;-60
2021/08/10 07:49:38;;;;;;;11.30;2.40;;;;;;;26.11;49.16;101431.63;5016425;28;20076;-60
2021/08/10 07:52:04;;;;;;;5.70;2.05;;;;;;;26.06;49.24;101429.53;5016660;28;20049;-60
2021/08/10 07:54:30;;;;;;;3.50;1.60;;;;;;;26.09;49.12;101439.25;5017501;28;20025;-60
2021/08/10 07:56:56;;;;;;;3.10;1.65;;;;;;;26.11;49.19;101437.13;5017552;28;20029;-60
2021/08/10 07:59:21;;;;;;;4.78;1.92;;;;;;;26.15;48.89;101444.75;5017492;28;20018;-60
2021/08/10 08:01:47;;;;;;;3.95;2.10;;;;;;;26.18;49.45;101443.47;5017086;28;20032;-60
2021/08/10 08:04:12;;;;;;;5.32;2.13;;;;;;;26.22;49.41;101451.06;5016046;28;20428;-60
2021/08/10 08:06:38;;;;;;;3.10;1.80;;;;;;;26.25;49.15;101447.03;5016036;28;20064;-60
2021/08/10 08:09:03;;;;;;;3.85;1.60;;;;;;;26.31;49.05;101448.91;5016131;28;20032;-60
2021/08/10 08:11:29;;;;;;;3.63;1.75;;;;;;;26.39;49.20;101443.19;5000637;28;20025;-60
2021/08/10 08:13:54;;;;;;;4.30;2.13;;;;;;;26.48;49.28;101433.63;5017324;28;20081;-58
2021/08/10 08:16:19;;;;;;;7.95;2.53;;;;;;;26.58;49.22;101434.00;5016908;28;20442;-59
2021/08/10 08:18:45;;;;;;;4.25;1.95;;;;;;;26.68;49.05;101431.63;5016802;28;20018;-58
2021/08/10 08:21:10;;;;;;;4.88;2.10;;;;;;;26.71;49.18;101425.69;5017037;28;20125;-59
2021/08/10 08:23:37;;;;;;;3.78;1.67;;;;;;;26.77;48.30;101422.06;5017099;28;20066;-59
2021/08/10 08:26:05;;;;;;;6.95;2.22;;;;;;;26.79;48.51;101419.97;5016690;28;20060;-58
2021/08/10 08:28:31;;;;;;;4.85;2.30;;;;;;;26.76;48.88;101414.88;5016630;28;20033;-58
2021/08/10 08:30:57;;;;;;;2.58;1.40;;;;;;;26.79;48.71;101408.97;5016837;28;20160;-58
2021/08/10 08:33:22;;;;;;;3.13;2.00;;;;;;;26.87;48.86;101413.34;5016920;28;20022;-58
2021/08/10 08:35:47;;;;;;;6.60;1.63;;;;;;;26.94;47.84;101416.91;5017119;28;20375;-59
2021/08/10 08:38:13;;;;;;;8.18;2.42;;;;;;;26.89;48.56;101420.31;5015286;28;20084;-58
2021/08/10 08:40:43;;;;;;;2.60;1.83;;;;;;;26.90;48.35;101427.50;5016947;28;20021;-59
2021/08/10 08:43:10;;;;;;;2.65;1.70;;;;;;;26.92;49.07;101433.63;5016597;28;20038;-59
2021/08/10 08:45:35;;;;;;;4.95;2.00;;;;;;;26.97;48.06;101432.94;5016595;28;20025;-59
2021/08/10 08:48:02;;;;;;;7.32;1.77;;;;;;;26.98;48.83;101434.66;5015406;28;20025;-59
2021/08/10 08:50:31;;;;;;;2.78;1.65;;;;;;;26.95;48.30;101441.44;5015769;28;20105;-59
2021/08/10 08:52:57;;;;;;;4.45;2.00;;;;;;;26.91;48.60;101431.09;5015003;28;20034;-59
2021/08/10 08:55:22;;;;;;;2.78;2.05;;;;;;;26.88;48.78;101424.16;5016394;28;20022;-59
2021/08/10 08:57:48;;;;;;;5.13;1.92;;;;;;;26.91;48.84;101423.69;5015185;28;20458;-58
2021/08/10 09:00:18;;;;;;;2.92;1.77;;;;;;;27.01;47.91;101417.69;5015380;28;20076;-59
2021/08/10 09:02:46;;;;;;;3.40;1.90;;;;;;;27.27;48.02;101422.16;5015078;28;20080;-59
2021/08/10 09:05:13;;;;;;;3.10;1.67;;;;;;;27.38;48.09;101422.28;5016245;28;20038;-59
2021/08/10 09:07:39;;;;;;;2.35;1.60;;;;;;;27.67;47.35;101423.50;5015945;28;20026;-59
2021/08/10 09:10:07;;;;;;;3.90;1.70;;;;;;;27.79;47.71;101421.69;5015913;28;20470;-59
2021/08/10 09:12:47;;;;;;;5.50;1.85;;;;;;;27.93;47.08;101423.25;5016038;28;20032;-59
2021/08/10 09:15:36;;;;;;;4.35;1.52;;;;;;;28.12;46.84;101427.72;5016035;28;20430;-59
2021/08/10 09:18:10;;;;;;;5.80;1.73;;;;;;;28.29;46.37;101427.94;5015959;28;20022;-59
2021/08/10 09:20:35;;;;;;;3.20;1.58;;;;;;;28.31;46.75;101434.06;5015647;28;20065;-59
2021/08/10 09:23:01;;;;;;;5.57;2.67;;;;;;;28.29;46.68;101420.50;5015755;28;20096;-59
2021/08/10 09:25:26;;;;;;;2.40;1.48;;;;;;;28.47;46.60;101416.06;5014234;28;20057;-59
2021/08/10 09:28:05;;;;;;;5.63;1.70;;;;;;;28.64;46.14;101419.88;5016252;28;20531;-59
2021/08/10 09:30:33;;;;;;;6.35;1.70;;;;;;;28.70;46.51;101413.44;5015613;28;20018;-59
2021/08/10 09:33:03;;;;;;;1.63;1.00;;;;;;;28.72;45.93;101420.41;5015574;28;20026;-59
2021/08/10 09:35:37;;;;;;;4.30;1.63;;;;;;;28.69;46.52;101418.09;5014147;28;20025;-58
2021/08/10 09:38:16;;;;;;;4.90;1.30;;;;;;;28.78;45.54;101421.38;5015310;28;20030;-59
2021/08/10 09:40:46;;;;;;;5.28;1.50;;;;;;;28.80;45.48;101417.31;5016136;28;20030;-59
2021/08/10 09:43:30;;;;;;;2.42;1.35;;;;;;;29.06;45.68;101420.75;5015148;28;20036;-59
2021/08/10 09:46:19;;;;;;;2.55;1.55;;;;;;;29.24;44.54;101423.44;5015454;28;20427;-59
2021/08/10 09:48:50;;;;;;;2.55;1.65;;;;;;;29.51;45.09;101426.59;5015427;28;20029;-59
2021/08/10 09:51:18;;;;;;;3.85;1.67;;;;;;;29.88;43.80;101423.38;5015322;28;20022;-59
2021/08/10 09:53:54;;;;;;;5.47;1.45;;;;;;;30.72;42.86;101426.53;5015339;28;20463;-59
2021/08/10 09:56:19;;;;;;;6.22;1.63;;;;;;;31.36;42.19;101419.69;5014979;28;20392;-58
2021/08/10 09:58:58;;;;;;;3.25;1.55;;;;;;;31.90;41.50;101426.41;5015028;28;20022;-59
2021/08/10 10:01:31;;;;;;;5.05;2.92;;;;;;;32.61;41.74;101414.34;5014489;28;20032;-59
2021/08/10 10:04:14;;;;;;;4.72;3.10;;;;;;;33.60;40.69;101404.47;5014875;28;20443;-60
2021/08/10 10:06:39;;;;;;;;;;;;;;;34.86;39.06;101416.19;4998647;28;20026;-59
2021/08/10 10:09:05;;;;;;;2.30;1.45;;;;;;;36.30;37.12;101405.47;5014763;28;19996;-60
2021/08/10 10:11:34;;;;;;;3.65;2.45;;;;;;;36.80;35.68;101412.78;5014678;28;20029;-59
2021/08/10 10:14:01;;;;;;;3.60;1.70;;;;;;;36.94;35.53;101399.81;5014866;28;20025;-59
2021/08/10 10:16:27;;;;;;;3.80;1.35;;;;;;;35.97;36.49;101402.22;5014625;28;20104;-59
2021/08/10 10:18:53;;;;;;;4.22;1.77;;;;;;;35.37;37.54;101407.91;5013389;28;20030;-59
2021/08/10 10:21:22;;;;;;;4.18;1.10;;;;;;;34.67;38.39;101417.00;5014762;28;20018;-60
2021/08/10 10:23:49;;;;;;;2.53;1.63;;;;;;;34.67;37.92;101428.97;5014336;28;20033;-59
2021/08/10 10:26:15;;;;;;;2.53;1.38;;;;;;;34.17;37.12;101414.84;5012770;28;20057;-59
2021/08/10 10:28:41;;;;;;;3.28;2.40;;;;;;;34.35;37.57;101423.53;5013281;28;20033;-59
2021/08/10 10:31:06;;;;;;;2.78;1.90;;;;;;;35.11;35.68;101414.56;5012939;28;20057;-60
2021/08/10 10:33:35;;;;;;;2.65;1.85;;;;;;;35.22;35.97;101416.25;5014342;28;20026;-60
2021/08/10 10:36:01;;;;;;;4.07;1.88;;;;;;;35.93;35.26;101411.47;5014360;28;20034;-60
2021/08/10 10:38:28;;;;;;;2.55;1.63;;;;;;;35.68;35.42;101411.53;5014366;28;20026;-59
2021/08/10 10:40:54;;;;;;;3.85;1.67;;;;;;;35.13;35.83;101415.13;5014332;28;20049;-59
2021/08/10 10:43:23;;;;;;;3.60;1.75;;;;;;;34.81;35.83;101415.34;5012768;28;20359;-59
2021/08/10 10:45:53;;;;;;;2.75;2.08;;;;;;;34.49;35.45;101409.94;5014333;28;20030;-59
2021/08/10 10:48:27;;;;;;;4.38;1.55;;;;;;;34.20;36.46;101414.28;5012847;28;20078;-59
2021/08/10 10:51:11;;;;;;;2.13;1.50;;;;;;;34.06;36.64;101419.47;5014221;28;20022;-59
2021/08/10 10:53:37;;;;;;;5.80;1.67;;;;;;;33.91;35.66;101411.06;5014354;28;20022;-60
2021/08/10 10:56:02;;;;;;;3.70;1.50;;;;;;;33.62;36.37;101413.38;5013848;28;20041;-59
2021/08/10 10:58:33;;;;;;;2.53;1.60;;;;;;;33.39;36.77;101408.19;5013968;28;20383;-59
2021/08/10 11:01:16;;;;;;;4.25;2.08;;;;;;;33.36;36.26;101414.28;5014142;28;20373;-59
2021/08/10 11:04:10;;;;;;;4.15;1.77;;;;;;;33.24;37.37;101405.25;5013672;28;20030;-59
2021/08/10 11:06:47;;;;;;;1.95;1.52;;;;;;;33.17;36.84;101405.47;5014363;28;20033;-59
2021/08/10 11:09:52;;;;;;;2.60;1.55;;;;;;;33.22;36.98;101402.75;5013667;28;20101;-59
2021/08/10 11:12:43;;;;;;;2.85;1.50;;;;;;;33.40;36.19;101404.28;5014487;28;20029;-60
2021/08/10 11:15:13;;;;;;;1.60;1.45;;;;;;;33.59;36.41;101394.44;5012387;28;20470;-60
2021/08/10 11:17:38;;;;;;;2.97;1.38;;;;;;;33.65;35.98;101395.31;5014082;28;20032;-59
2021/08/10 11:20:26;;;;;;;5.22;1.50;;;;;;;33.54;36.71;101388.81;5013978;28;20112;-60
2021/08/10 11:23:21;;;;;;;3.17;1.67;;;;;;;33.58;35.67;101392.78;5013828;28;20026;-60
2021/08/10 11:25:59;;;;;;;1.95;1.25;;;;;;;33.48;35.88;101389.88;5013504;28;20092;-60
2021/08/10 11:28:33;;;;;;;2.33;1.33;;;;;;;33.60;35.47;101387.78;5013853;28;20418;-59